Time;durP1;ratioP1;P1;durP2;ratioP2;P2;SDS_P1;SDS_P2;PMS_P1;PMS_P2;Temp;Humidity;BMP_temperature;BMP_pressure;BME280_temperature;BME280_humidity;BME280_pressure;Samples;Min_cycle;Max_cycle;Signal;HPM_P1;HPM_P2
2021/09/08 00:04:48;;;;;;;;;;;15.30;99.90;;;14.22;80.03;96087.66;10318593;28;2144;-75
2021/09/08 00:09:51;;;;;;;;;;;15.20;99.90;;;14.17;78.95;96080.41;10318808;28;2111;-75
2021/09/08 00:14:54;;;;;;;;;;;15.20;99.90;;;14.24;79.48;96085.47;10316020;28;2030;-75
2021/09/08 00:19:57;;;;;;;;;;;15.20;99.90;;;14.15;79.13;96076.38;10296730;28;2069;-74
2021/09/08 00:25:00;;;;;;;;;;;15.20;99.90;;;14.15;78.59;96068.28;10327970;28;2138;-75
2021/09/08 00:30:03;;;;;;;;;;;15.10;99.90;;;14.14;78.62;96066.69;10296093;28;2218;-75
2021/09/08 00:35:05;;;;;;;;;;;15.10;99.90;;;14.04;78.99;96064.88;10317166;28;2062;-75
2021/09/08 00:40:09;;;;;;;;;;;15.10;99.90;;;13.98;79.00;96060.63;10305855;28;2048;-75
2021/09/08 00:45:12;;;;;;;;;;;15.00;99.90;;;13.95;79.06;96048.50;10314784;28;2077;-75
2021/09/08 00:50:15;;;;;;;;;;;15.00;99.90;;;13.82;80.04;96040.28;10319770;28;2139;-75
2021/09/08 00:55:18;;;;;;;;;;;14.90;99.90;;;13.75;79.95;96035.22;10310650;28;2221;-77
2021/09/08 01:00:21;;;;;;;;;;;14.80;99.90;;;13.60;80.88;96038.06;10311234;28;2098;-76
2021/09/08 01:05:25;;;;;;;;;;;14.70;99.90;;;13.63;80.20;96022.13;10315720;28;2309;-76
2021/09/08 01:10:29;;;;;;;;;;;14.70;99.90;;;13.56;80.67;96029.75;10310796;28;2050;-76
2021/09/08 01:15:43;;;;;;;;;;;14.60;99.90;;;13.54;80.96;96026.50;10330850;28;2206;-76
2021/09/08 01:21:06;;;;;;;;;;;14.60;99.90;;;13.39;81.75;96027.47;10321812;28;2140;-76
2021/09/08 01:26:29;;;;;;;;;;;14.50;99.90;;;13.37;81.07;96024.28;10322034;28;2151;-76
2021/09/08 01:31:51;;;;;;;;;;;14.50;99.90;;;13.25;81.66;96019.25;10304297;28;2062;-76
2021/09/08 01:37:00;;;;;;;;;;;14.40;99.90;;;13.24;82.08;96020.34;10305723;28;2135;-76
2021/09/08 01:42:03;;;;;;;;;;;14.30;99.90;;;13.27;82.20;96012.75;10315862;28;2094;-76
2021/09/08 01:47:06;;;;;;;;;;;14.20;99.90;;;13.25;81.70;96013.06;10293716;28;2102;-76
2021/09/08 01:52:09;;;;;;;;;;;14.30;99.90;;;13.11;82.45;96010.19;10310355;28;2193;-76
2021/09/08 01:57:12;;;;;;;;;;;14.20;99.90;;;13.06;81.82;96006.72;10310252;28;2082;-76
2021/09/08 02:02:14;;;;;;;;;;;14.10;99.90;;;12.98;82.28;96003.53;10307930;28;2031;-76
2021/09/08 02:07:18;;;;;;;;;;;14.00;99.90;;;13.07;81.71;96002.94;10310507;28;2085;-76
2021/09/08 02:12:21;;;;;;;;;;;14.00;99.90;;;12.86;82.38;96003.09;10308199;28;2066;-76
2021/09/08 02:17:24;;;;;;;;;;;14.00;99.90;;;12.84;82.74;95999.84;10321963;28;2150;-76
2021/09/08 02:22:26;;;;;;;;;;;13.90;99.90;;;12.93;82.52;95991.97;10313860;28;2087;-76
2021/09/08 02:27:29;;;;;;;;;;;13.90;99.90;;;12.90;82.45;95987.13;10315204;28;2172;-77
2021/09/08 02:32:32;;;;;;;;;;;13.90;99.90;;;12.75;83.42;95984.56;10317683;28;2050;-73
2021/09/08 02:37:35;;;;;;;;;;;13.90;99.90;;;12.68;84.39;95993.00;10319904;28;2114;-76
2021/09/08 02:42:38;;;;;;;;;;;13.80;99.90;;;12.78;83.81;95986.69;10315578;28;2241;-75
2021/09/08 02:47:40;;;;;;;;;;;13.80;99.90;;;12.66;84.57;95990.59;10313936;28;2265;-75
2021/09/08 02:52:43;;;;;;;;;;;13.80;99.90;;;12.73;84.19;95984.88;10325389;28;2086;-76
2021/09/08 02:57:46;;;;;;;;;;;13.80;99.90;;;12.76;83.80;95973.50;10319591;28;2244;-76
2021/09/08 03:02:49;;;;;;;;;;;13.80;99.90;;;12.72;84.50;95972.44;10318740;28;2208;-76
2021/09/08 03:07:52;;;;;;;;;;;13.70;99.90;;;12.73;84.65;95965.97;10308934;28;2194;-74
2021/09/08 03:12:55;;;;;;;;;;;13.70;99.90;;;12.61;85.15;95965.53;10318835;28;2141;-75
2021/09/08 03:17:58;;;;;;;;;;;13.70;99.90;;;12.66;85.49;95966.31;10309685;28;2220;-75
2021/09/08 03:23:00;;;;;;;;;;;13.70;99.90;;;12.61;84.32;95957.44;10304863;28;2088;-75
2021/09/08 03:28:03;;;;;;;;;;;13.70;99.90;;;12.72;83.75;95964.34;10301185;28;2058;-75
2021/09/08 03:33:06;;;;;;;;;;;13.70;99.90;;;12.56;84.19;95960.19;10317199;28;2164;-75
2021/09/08 03:38:09;;;;;;;;;;;13.60;99.90;;;12.54;84.35;95967.75;10320391;28;2149;-74
2021/09/08 03:43:12;;;;;;;;;;;13.60;99.90;;;12.51;85.22;95954.81;10321824;28;2115;-76
2021/09/08 03:48:15;;;;;;;;;;;13.50;99.90;;;12.54;84.98;95957.78;10316685;28;2106;-76
2021/09/08 03:53:18;;;;;;;;;;;13.50;99.90;;;12.68;84.07;95957.94;10315348;28;2125;-75
2021/09/08 03:58:21;;;;;;;;;;;13.60;99.90;;;12.39;85.64;95960.56;10315216;28;2224;-75
2021/09/08 04:03:24;;;;;;;;;;;13.50;99.90;;;12.30;86.76;95960.34;10296878;28;2121;-76
2021/09/08 04:08:28;;;;;;;;;;;13.40;99.90;;;12.04;87.28;95962.41;10305954;28;2149;-76
2021/09/08 04:13:30;;;;;;;;;;;13.20;99.90;;;12.15;87.69;95955.88;10308375;28;2122;-76
2021/09/08 04:18:33;;;;;;;;;;;13.20;99.90;;;12.05;87.71;95944.34;10307904;28;2095;-76
2021/09/08 04:23:38;;;;;;;;;;;13.10;99.90;;;11.97;88.48;95953.00;10316755;28;2066;-76
2021/09/08 04:28:41;;;;;;;;;;;13.00;99.90;;;12.00;88.22;95942.47;10313582;28;2141;-76
2021/09/08 04:33:44;;;;;;;;;;;13.00;99.90;;;12.09;88.29;95942.72;10310244;28;2175;-76
2021/09/08 04:38:47;;;;;;;;;;;13.10;99.90;;;12.10;88.15;95941.63;10309048;28;2058;-75
2021/09/08 04:43:50;;;;;;;;;;;13.10;99.90;;;11.97;88.62;95947.63;10312773;28;2113;-76
2021/09/08 04:48:52;;;;;;;;;;;13.00;99.90;;;11.95;88.92;95944.38;10316200;28;2012;-76
2021/09/08 04:53:55;;;;;;;;;;;13.00;99.90;;;12.01;88.38;95943.28;10320840;28;2161;-75
2021/09/08 04:58:58;;;;;;;;;;;12.90;99.90;;;11.88;89.51;95947.38;10298022;28;2120;-75
2021/09/08 05:04:01;;;;;;;;;;;12.90;99.90;;;11.86;89.08;95953.06;10316046;28;2355;-75
2021/09/08 05:09:04;;;;;;;;;;;12.90;99.90;;;11.81;88.37;95953.06;10310620;28;2042;-75
2021/09/08 05:14:07;;;;;;;;;;;12.80;99.90;;;11.36;91.97;95960.22;10309609;28;2675;-74
2021/09/08 05:19:11;;;;;;;;;;;12.60;99.90;;;11.28;93.74;95962.66;10312245;28;2163;-76
2021/09/08 05:24:14;;;;;;;;;;;12.40;99.90;;;11.49;93.32;95958.03;10305426;28;2194;-76
2021/09/08 05:29:17;;;;;;;;;;;12.40;99.90;;;11.73;92.45;95967.09;10300063;28;2073;-76
2021/09/08 05:34:20;;;;;;;;;;;12.60;99.90;;;11.54;93.86;95966.09;10301793;28;2155;-76
2021/09/08 05:39:23;;;;;;;;;;;12.60;99.90;;;11.89;92.43;95960.56;10315501;28;2148;-76
2021/09/08 05:44:25;;;;;;;;;;;12.70;99.90;;;12.12;92.38;95958.31;10307832;28;2066;-76
2021/09/08 05:49:32;;;;;;;;;;;12.90;99.90;;;12.12;93.84;95971.78;10311578;28;2062;-74
2021/09/08 05:54:35;;;;;;;;;;;13.00;99.90;;;12.12;93.75;95972.59;10311827;28;2101;-75
2021/09/08 05:59:38;;;;;;;;;;;13.10;99.90;;;12.24;93.23;95964.16;10313710;28;2170;-74
2021/09/08 06:04:41;;;;;;;;;;;13.10;99.90;;;12.56;91.99;95966.38;10321992;28;2249;-75
2021/09/08 06:09:43;;;;;;;;;;;13.40;99.90;;;12.98;89.15;95964.97;10316660;28;2275;-75
2021/09/08 06:14:46;;;;;;;;;;;13.80;99.90;;;12.84;90.19;95954.00;10328621;28;2152;-75
2021/09/08 06:19:49;;;;;;;;;;;13.90;99.90;;;12.66;91.84;95954.69;10322045;28;2077;-75
2021/09/08 06:24:52;;;;;;;;;;;13.70;99.90;;;12.69;91.63;95949.53;10315690;28;2170;-76
2021/09/08 06:29:55;;;;;;;;;;;13.70;99.90;;;12.94;90.35;95940.44;10321661;28;2090;-73
2021/09/08 06:34:58;;;;;;;;;;;13.80;99.90;;;13.13;89.90;95940.50;10347045;28;2046;-75
2021/09/08 06:40:01;;;;;;;;;;;14.00;99.90;;;13.46;89.96;95933.44;10370081;28;1825;-77
2021/09/08 06:45:04;;;;;;;;;;;14.10;99.90;;;13.72;88.33;95931.22;10347394;28;2122;-75
2021/09/08 06:50:08;;;;;;;;;;;14.40;99.90;;;13.97;86.39;95930.09;10353343;28;1994;-77
2021/09/08 06:55:10;;;;;;;;;;;14.60;99.90;;;14.33;85.59;95932.31;10361531;28;2097;-77
2021/09/08 07:00:14;;;;;;;;;;;14.90;99.90;;;14.65;83.81;95923.44;10343735;28;2123;-76
2021/09/08 07:05:17;;;;;;;;;;;15.30;99.90;;;14.91;81.92;95915.72;10335310;28;2101;-78
2021/09/08 07:10:20;;;;;;;;;;;15.50;99.90;;;15.23;80.95;95911.34;10335191;28;2146;-77
2021/09/08 07:15:23;;;;;;;;;;;15.90;99.90;;;15.31;79.03;95908.75;10338181;28;2110;-77
2021/09/08 07:20:26;;;;;;;;;;;16.10;99.90;;;15.82;78.39;95896.91;10342248;28;2220;-77
2021/09/08 07:25:29;;;;;;;;;;;16.30;99.90;;;15.99;77.60;95899.00;10346263;28;2047;-75
2021/09/08 07:30:32;;;;;;;;;;;16.60;99.90;;;16.09;77.14;95901.47;10356459;28;1957;-75
2021/09/08 07:35:35;;;;;;;;;;;16.70;99.90;;;16.02;77.01;95908.41;10357705;28;2201;-76
2021/09/08 07:40:37;;;;;;;;;;;16.80;99.90;;;16.01;77.65;95904.09;10354349;28;1708;-77
2021/09/08 07:45:40;;;;;;;;;;;16.90;99.90;;;16.46;75.72;95911.19;10365936;28;1798;-74
2021/09/08 07:50:44;;;;;;;;;;;17.10;99.90;;;16.73;75.08;95910.31;10337016;28;2150;-76
2021/09/08 07:55:46;;;;;;;;;;;17.30;99.90;;;17.23;73.19;95906.59;10328636;28;2129;-78
2021/09/08 08:00:49;;;;;;;;;;;17.70;99.90;;;16.85;73.45;95906.22;10306894;28;1916;-76
2021/09/08 08:05:52;;;;;;;;;;;17.80;99.90;;;16.55;75.14;95905.06;10304724;28;2128;-74
2021/09/08 08:10:55;;;;;;;;;;;17.70;99.90;;;16.69;73.54;95897.63;10316904;28;1966;-75
2021/09/08 08:15:58;;;;;;;;;;;17.60;99.90;;;16.86;73.70;95892.34;10317701;28;2058;-74
2021/09/08 08:21:01;;;;;;;;;;;17.90;99.90;;;17.40;72.27;95895.81;10310777;28;2034;-74
2021/09/08 08:26:03;;;;;;;;;;;18.00;99.90;;;17.82;69.73;95897.09;10307665;28;2030;-74
2021/09/08 08:31:06;;;;;;;;;;;18.40;99.90;;;18.05;69.37;95897.75;10303871;28;1902;-75
2021/09/08 08:36:09;;;;;;;;;;;18.60;99.90;;;17.94;70.04;95899.19;10313105;28;2162;-74
2021/09/08 08:41:12;;;;;;;;;;;18.70;99.90;;;18.16;68.27;95903.69;10304405;28;2037;-74
2021/09/08 08:46:15;;;;;;;;;;;18.90;99.90;;;18.44;67.92;95895.22;10310983;28;2253;-74
2021/09/08 08:51:18;;;;;;;;;;;19.00;99.90;;;18.10;69.17;95892.16;10307830;28;1980;-74
2021/09/08 08:56:21;;;;;;;;;;;19.10;99.90;;;18.46;67.79;95880.19;10296184;28;2027;-74
2021/09/08 09:01:24;;;;;;;;;;;19.10;99.90;;;18.51;67.86;95877.31;10302443;28;2149;-73
2021/09/08 09:06:27;;;;;;;;;;;19.20;99.90;;;18.66;66.57;95873.28;10301647;28;1919;-74
2021/09/08 09:11:30;;;;;;;;;;;19.50;99.90;;;18.90;67.02;95873.59;10311636;28;2035;-74
2021/09/08 09:16:35;;;;;;;;;;;19.60;99.90;;;18.99;66.32;95867.31;10298871;28;2124;-73
2021/09/08 09:21:38;;;;;;;;;;;19.80;99.90;;;18.99;65.78;95867.31;10316409;28;2141;-75
2021/09/08 09:26:41;;;;;;;;;;;19.80;99.90;;;19.25;64.57;95862.56;10311777;28;2042;-76
2021/09/08 09:31:44;;;;;;;;;;;19.90;99.90;;;19.57;63.96;95871.25;10307989;28;2158;-75
2021/09/08 09:36:47;;;;;;;;;;;20.30;99.90;;;19.42;63.38;95865.22;10316780;28;1911;-75
2021/09/08 09:41:50;;;;;;;;;;;20.20;99.90;;;19.97;61.47;95850.66;10322077;28;2019;-74
2021/09/08 09:46:53;;;;;;;;;;;20.50;99.90;;;19.63;62.64;95851.69;10312170;28;2006;-74
2021/09/08 09:51:56;;;;;;;;;;;20.70;99.90;;;19.94;62.10;95842.34;10327460;28;1987;-74
2021/09/08 09:56:59;;;;;;;;;;;20.80;99.90;;;19.86;62.77;95835.03;10320676;28;1844;-74
2021/09/08 10:02:02;;;;;;;;;;;20.70;99.90;;;20.30;61.18;95819.13;10315290;28;2090;-74
2021/09/08 10:07:05;;;;;;;;;;;20.90;99.90;;;20.30;60.79;95822.66;10315153;28;2114;-75
2021/09/08 10:12:08;;;;;;;;;;;21.20;99.90;;;20.28;61.65;95830.34;10307721;28;2175;-74
2021/09/08 10:17:11;;;;;;;;;;;21.20;99.90;;;20.65;59.93;95811.44;10313432;28;1899;-74
2021/09/08 10:22:14;;;;;;;;;;;21.20;99.90;;;20.82;58.81;95813.97;10318323;28;2000;-74
2021/09/08 10:27:16;;;;;;;;;;;21.50;99.90;;;20.75;58.52;95800.09;10320623;28;2082;-75
2021/09/08 10:32:19;;;;;;;;;;;21.60;99.90;;;20.93;59.34;95812.41;10315792;28;2062;-73
2021/09/08 10:37:23;;;;;;;;;;;21.60;99.90;;;21.00;58.13;95799.00;10311053;28;2062;-75
2021/09/08 10:42:26;;;;;;;;;;;21.80;99.90;;;21.20;56.41;95799.25;10314005;28;2058;-74
2021/09/08 10:47:38;;;;;;;;;;;22.00;99.90;;;21.58;56.24;95788.78;10310316;28;2142;-74
2021/09/08 10:52:41;;;;;;;;;;;22.10;99.90;;;21.82;56.83;95776.19;10311865;28;1918;-72
2021/09/08 10:57:44;;;;;;;;;;;22.50;99.90;;;22.00;54.64;95771.25;10315998;28;2288;-73
2021/09/08 11:02:47;;;;;;;;;;;22.70;99.90;;;21.64;57.48;95774.88;10314292;28;1999;-74
2021/09/08 11:07:50;;;;;;;;;;;22.60;99.90;;;21.65;59.86;95769.06;10307302;28;1946;-74
2021/09/08 11:12:53;;;;;;;;;;;22.50;99.90;;;21.80;57.89;95767.53;10299859;28;2213;-74
2021/09/08 11:17:56;;;;;;;;;;;22.70;99.90;;;21.77;59.22;95768.25;10321508;28;2026;-74
2021/09/08 11:22:59;;;;;;;;;;;22.60;99.90;;;21.76;58.68;95751.03;10332029;28;1972;-78
2021/09/08 11:28:02;;;;;;;;;;;22.60;99.90;;;21.90;56.15;95755.31;10335182;28;2102;-79
2021/09/08 11:33:04;;;;;;;;;;;22.70;99.90;;;22.11;55.68;95745.81;10334397;28;2079;-79
2021/09/08 11:38:07;;;;;;;;;;;22.90;99.90;;;22.25;56.21;95756.34;10339192;28;2023;-78
2021/09/08 11:43:10;;;;;;;;;;;23.00;99.90;;;22.43;56.94;95743.16;10326656;28;2019;-78
2021/09/08 11:48:13;;;;;;;;;;;23.10;99.90;;;22.66;55.20;95741.44;10319013;28;2085;-78
2021/09/08 11:53:16;;;;;;;;;;;23.40;99.90;;;22.71;55.21;95740.34;10323309;28;2184;-75
2021/09/08 11:58:19;;;;;;;;;;;23.50;99.90;;;22.78;54.81;95748.00;10315100;28;3326;-77
2021/09/08 12:03:22;;;;;;;;;;;23.60;99.90;;;22.80;55.46;95742.94;10314850;28;2435;-74
2021/09/08 12:08:25;;;;;;;;;;;23.60;99.90;;;22.94;52.13;95732.38;10324069;28;2065;-75
2021/09/08 12:13:28;;;;;;;;;;;23.70;99.90;;;23.04;52.49;95731.06;10312008;28;2522;-74
2021/09/08 12:18:31;;;;;;;;;;;23.90;99.90;;;23.19;51.89;95725.53;10309252;28;2012;-74
2021/09/08 12:23:34;;;;;;;;;;;23.90;99.90;;;23.20;50.98;95718.91;10313253;28;1851;-73
2021/09/08 12:28:37;;;;;;;;;;;24.10;99.90;;;23.20;50.21;95713.41;10319604;28;2337;-74
2021/09/08 12:33:39;;;;;;;;;;;24.10;99.90;;;23.45;50.48;95713.19;10311058;28;1924;-74
2021/09/08 12:38:43;;;;;;;;;;;24.30;99.90;;;23.60;51.63;95708.81;10307666;28;2123;-73
2021/09/08 12:43:46;;;;;;;;;;;24.40;99.90;;;23.77;50.71;95694.72;10317057;28;1931;-75
2021/09/08 12:48:49;;;;;;;;;;;24.50;99.90;;;23.82;50.13;95688.94;10303367;28;1995;-76
2021/09/08 12:53:52;;;;;;;;;;;24.70;99.90;;;23.95;47.73;95690.41;10305768;28;2109;-73
2021/09/08 12:58:55;;;;;;;;;;;24.70;99.90;;;23.72;47.90;95684.03;10302425;28;2058;-73
2021/09/08 13:03:58;;;;;;;;;;;24.60;99.90;;;23.80;47.71;95674.00;10307081;28;1711;-76
2021/09/08 13:09:01;;;;;;;;;;;24.50;99.90;;;23.73;50.58;95680.94;10303807;28;1915;-77
2021/09/08 13:14:04;;;;;;;;;;;24.60;99.90;;;23.86;48.40;95667.06;10319799;28;1910;-77
2021/09/08 13:19:07;;;;;;;;;;;24.60;99.90;;;24.10;48.95;95668.69;10316911;28;1884;-77
2021/09/08 13:24:10;;;;;;;;;;;24.80;99.90;;;24.03;49.23;95660.31;10315382;28;2038;-80
2021/09/08 13:29:13;;;;;;;;;;;24.80;99.90;;;24.13;46.96;95655.06;10314634;28;2078;-76
2021/09/08 13:34:17;;;;;;;;;;;24.90;99.90;;;24.04;47.21;95648.97;10308436;28;2387;-76
2021/09/08 13:39:20;;;;;;;;;;;24.80;99.90;;;24.09;47.08;95631.41;10307444;28;2027;-73
2021/09/08 13:44:24;;;;;;;;;;;24.90;99.90;;;23.92;48.02;95627.16;10314692;28;2105;-76
2021/09/08 13:49:29;;;;;;;;;;;24.80;99.90;;;23.86;48.21;95634.94;10296028;28;2062;-74
2021/09/08 13:54:34;;;;;;;;;;;24.70;99.90;;;23.73;48.04;95615.06;10302888;28;2130;-75
2021/09/08 13:59:37;;;;;;;;;;;24.60;99.90;;;23.92;48.95;95617.00;10317318;28;2196;-75
2021/09/08 14:04:39;;;;;;;;;;;24.60;99.90;;;24.24;46.90;95612.09;10306841;28;2102;-76
2021/09/08 14:09:42;;;;;;;;;;;24.90;99.90;;;24.12;49.14;95604.03;10319001;28;2035;-77
2021/09/08 14:14:45;;;;;;;;;;;25.00;99.90;;;24.08;49.17;95610.63;10308817;28;2079;-76
2021/09/08 14:19:48;;;;;;;;;;;24.90;99.90;;;24.01;49.54;95608.53;10313528;28;1855;-74
2021/09/08 14:24:51;;;;;;;;;;;24.80;99.90;;;23.94;49.04;95606.44;10314290;28;2078;-76
2021/09/08 14:29:54;;;;;;;;;;;24.80;99.90;;;23.95;49.81;95605.28;10320217;28;2133;-75
2021/09/08 14:34:56;;;;;;;;;;;24.70;99.90;;;23.91;49.36;95598.94;10313109;28;2042;-79
2021/09/08 14:39:59;;;;;;;;;;;24.70;99.90;;;24.06;48.95;95601.97;10320467;28;2097;-78
2021/09/08 14:45:02;;;;;;;;;;;24.70;99.90;;;23.84;49.39;95589.75;10346905;28;1752;-77
2021/09/08 14:50:06;;;;;;;;;;;24.70;99.90;;;23.95;48.80;95593.50;10326031;28;2027;-76
2021/09/08 14:55:09;;;;;;;;;;;24.80;99.90;;;23.89;48.46;95589.47;10343718;28;2188;-77
2021/09/08 15:00:12;;;;;;;;;;;24.70;99.90;;;23.68;49.16;95585.16;10336729;28;1868;-78
2021/09/08 15:05:15;;;;;;;;;;;24.60;99.90;;;23.74;48.77;95580.19;10338889;28;2114;-76
2021/09/08 15:10:18;;;;;;;;;;;24.60;99.90;;;23.74;48.96;95577.44;10320502;28;1805;-77
2021/09/08 15:15:21;;;;;;;;;;;24.50;99.90;;;23.77;49.09;95564.94;10315758;28;2113;-75
2021/09/08 15:20:23;;;;;;;;;;;24.60;99.90;;;23.71;49.33;95554.25;10311428;28;1756;-76
2021/09/08 15:25:26;;;;;;;;;;;24.60;99.90;;;23.64;49.63;95565.09;10295793;28;2060;-75
2021/09/08 15:30:29;;;;;;;;;;;24.50;99.90;;;23.64;50.28;95548.63;10323307;28;1903;-77
2021/09/08 15:35:32;;;;;;;;;;;24.50;99.90;;;23.54;50.62;95557.44;10312752;28;2136;-77
2021/09/08 15:40:35;;;;;;;;;;;24.40;99.90;;;23.43;51.38;95545.44;10315731;28;2007;-77
2021/09/08 15:45:38;;;;;;;;;;;24.30;99.90;;;23.38;51.52;95548.47;10317396;28;2011;-74
2021/09/08 15:50:40;;;;;;;;;;;24.20;99.90;;;23.28;52.07;95546.28;10306820;28;2035;-76
2021/09/08 15:55:44;;;;;;;;;;;24.20;99.90;;;23.27;52.51;95540.00;10310144;28;1932;-76
2021/09/08 16:00:47;;;;;;;;;;;24.10;99.90;;;23.23;52.81;95535.63;10307876;28;1785;-75
2021/09/08 16:05:50;;;;;;;;;;;24.10;99.90;;;23.09;53.27;95536.91;10310054;28;2035;-75
2021/09/08 16:10:55;;;;;;;;;;;24.00;99.90;;;22.98;53.17;95529.63;10308770;28;2050;-77
2021/09/08 16:15:57;;;;;;;;;;;23.80;99.90;;;22.94;53.78;95524.06;10302890;28;2131;-76
2021/09/08 16:21:00;;;;;;;;;;;23.80;99.90;;;22.85;54.21;95524.25;10305317;28;1750;-74
2021/09/08 16:26:03;;;;;;;;;;;23.70;99.90;;;22.72;54.92;95525.50;10302085;28;1924;-75
2021/09/08 16:31:06;;;;;;;;;;;23.60;99.90;;;22.62;55.51;95520.56;10298655;28;1989;-75
2021/09/08 16:36:09;;;;;;;;;;;23.50;99.90;;;22.50;56.22;95521.47;10304188;28;1867;-75
2021/09/08 16:41:12;;;;;;;;;;;23.40;99.90;;;22.37;56.82;95523.53;10318844;28;2125;-74
2021/09/08 16:46:14;;;;;;;;;;;23.30;99.90;;;22.29;57.42;95518.25;10311765;28;1915;-75
2021/09/08 16:51:17;;;;;;;;;;;23.20;99.90;;;22.08;58.33;95519.28;10312013;28;2043;-75
2021/09/08 16:56:20;;;;;;;;;;;23.00;99.90;;;21.96;58.79;95522.09;10321278;28;2027;-73
2021/09/08 17:01:23;;;;;;;;;;;22.90;99.90;;;21.85;59.56;95518.31;10320076;28;1844;-73
2021/09/08 17:06:27;;;;;;;;;;;22.80;99.90;;;21.68;60.28;95518.63;10336704;28;2078;-74
2021/09/08 17:11:50;;;;;;;;;;;22.70;99.90;;;21.57;60.79;95512.88;10321839;28;2098;-74
2021/09/08 17:16:53;;;;;;;;;;;22.50;99.90;;;21.33;61.84;95522.00;10317064;28;2058;-72
2021/09/08 17:21:56;;;;;;;;;;;22.40;99.90;;;21.15;62.34;95517.94;10313902;28;2067;-74
2021/09/08 17:26:59;;;;;;;;;;;22.20;99.90;;;21.05;63.32;95520.00;10311193;28;2015;-73
2021/09/08 17:32:02;;;;;;;;;;;22.10;99.90;;;20.87;63.72;95524.19;10305143;28;2023;-75
2021/09/08 17:37:07;;;;;;;;;;;21.90;99.90;;;20.68;64.47;95521.25;10309632;28;2094;-73
2021/09/08 17:42:15;;;;;;;;;;;21.80;99.90;;;20.45;65.69;95515.47;10304284;28;2090;-75
2021/09/08 17:47:18;;;;;;;;;;;21.60;99.90;;;20.32;66.52;95527.50;10312642;28;1903;-76
2021/09/08 17:52:22;;;;;;;;;;;21.40;99.90;;;20.18;67.42;95522.41;10306017;28;2000;-76
2021/09/08 17:57:32;;;;;;;;;;;21.30;99.90;;;19.90;69.12;95520.31;10317691;28;1942;-75
2021/09/08 18:02:35;;;;;;;;;;;21.00;99.90;;;19.75;70.73;95529.16;10320703;28;1964;-74
2021/09/08 18:07:38;;;;;;;;;;;20.80;99.90;;;19.68;71.50;95534.38;10325384;28;2027;-74
2021/09/08 18:12:41;;;;;;;;;;;20.70;99.90;;;19.66;72.21;95536.66;10309162;28;1974;-74
2021/09/08 18:17:46;;;;;;;;;;;20.70;99.90;;;19.60;72.75;95540.72;10316344;28;2058;-75
2021/09/08 18:22:49;;;;;;;;;;;20.60;99.90;;;19.43;73.25;95541.66;10327041;28;2043;-74
2021/09/08 18:27:52;;;;;;;;;;;20.50;99.90;;;19.19;74.46;95536.91;10316107;28;2054;-75
2021/09/08 18:32:57;;;;;;;;;;;20.30;99.90;;;19.29;73.76;95539.22;10310210;28;2113;-75
2021/09/08 18:38:00;;;;;;;;;;;20.30;99.90;;;19.10;74.14;95538.91;10328209;28;2146;-75
2021/09/08 18:43:03;;;;;;;;;;;20.20;99.90;;;18.99;74.87;95543.16;10308026;28;2529;-74
2021/09/08 18:48:06;;;;;;;;;;;20.10;99.90;;;18.96;75.22;95547.34;10314589;28;1938;-75
2021/09/08 18:53:08;;;;;;;;;;;19.90;99.90;;;18.80;75.72;95541.69;10320977;28;2082;-75
2021/09/08 18:58:11;;;;;;;;;;;19.90;99.90;;;18.66;76.40;95546.56;10317966;28;2071;-74
2021/09/08 19:03:14;;;;;;;;;;;19.80;99.90;;;18.44;77.41;95541.41;10329954;28;2154;-76
2021/09/08 19:08:17;;;;;;;;;;;19.60;99.90;;;18.43;77.46;95537.91;10312886;28;2047;-77
2021/09/08 19:13:20;;;;;;;;;;;19.50;99.90;;;18.37;77.50;95531.84;10309187;28;1914;-75
2021/09/08 19:18:23;;;;;;;;;;;19.40;99.90;;;18.24;78.03;95541.03;10305376;28;1984;-75
2021/09/08 19:23:26;;;;;;;;;;;19.30;99.90;;;18.06;78.61;95528.63;10301749;28;1813;-75
2021/09/08 19:28:29;;;;;;;;;;;19.20;99.90;;;18.01;78.77;95545.16;10310084;28;2058;-76
2021/09/08 19:33:31;;;;;;;;;;;19.10;99.90;;;17.92;79.29;95539.75;10304688;28;1981;-76
2021/09/08 19:38:35;;;;;;;;;;;19.10;99.90;;;17.99;79.45;95540.03;10304432;28;2027;-75
2021/09/08 19:43:38;;;;;;;;;;;19.00;99.90;;;17.81;79.85;95536.59;10308862;28;1827;-76
2021/09/08 19:48:41;;;;;;;;;;;18.90;99.90;;;17.74;80.16;95533.56;10310149;28;2011;-76
2021/09/08 19:53:44;;;;;;;;;;;18.90;99.90;;;17.73;80.64;95531.16;10318877;28;2208;-76
2021/09/08 19:58:47;;;;;;;;;;;18.80;99.90;;;17.67;81.26;95530.50;10307283;28;2202;-76
2021/09/08 20:03:50;;;;;;;;;;;18.80;99.90;;;17.68;81.17;95523.16;10309003;28;2193;-75
2021/09/08 20:08:53;;;;;;;;;;;18.70;99.90;;;17.61;81.32;95528.28;10311623;28;2174;-76
2021/09/08 20:13:56;;;;;;;;;;;18.70;99.90;;;17.50;82.02;95514.28;10303608;28;2090;-75
2021/09/08 20:18:59;;;;;;;;;;;18.60;99.90;;;17.63;81.52;95516.00;10303958;28;2152;-74
2021/09/08 20:24:02;;;;;;;;;;;18.60;99.90;;;17.54;81.93;95523.34;10311408;28;1976;-75
2021/09/08 20:29:05;;;;;;;;;;;18.60;99.90;;;17.43;83.36;95525.63;10309429;28;2168;-75
2021/09/08 20:34:07;;;;;;;;;;;18.50;99.90;;;17.52;82.36;95518.25;10304154;28;2093;-75
2021/09/08 20:39:10;;;;;;;;;;;18.50;99.90;;;17.47;82.80;95514.91;10312700;28;2062;-74
2021/09/08 20:44:13;;;;;;;;;;;18.50;99.90;;;17.53;82.70;95510.91;10309584;28;2210;-75
2021/09/08 20:49:16;;;;;;;;;;;18.50;99.90;;;17.52;82.85;95510.09;10311037;28;2099;-75
2021/09/08 20:54:19;;;;;;;;;;;18.50;99.90;;;17.55;82.99;95516.78;10310862;28;2269;-74
2021/09/08 20:59:21;;;;;;;;;;;18.50;99.90;;;17.54;82.26;95512.50;10319124;28;2074;-73
2021/09/08 21:04:24;;;;;;;;;;;18.50;99.90;;;17.54;82.49;95517.91;10307875;28;2138;-74
2021/09/08 21:09:28;;;;;;;;;;;18.50;99.90;;;17.53;83.04;95508.97;10313313;28;1979;-74
2021/09/08 21:14:31;;;;;;;;;;;18.50;99.90;;;17.44;82.90;95507.41;10318368;28;2094;-73
2021/09/08 21:19:34;;;;;;;;;;;18.40;99.90;;;17.45;83.51;95506.28;10293090;28;2094;-74
2021/09/08 21:24:36;;;;;;;;;;;18.40;99.90;;;17.34;83.93;95499.59;10310737;28;2170;-73
2021/09/08 21:29:39;;;;;;;;;;;18.30;99.90;;;17.34;83.17;95505.81;10306688;28;1962;-74
2021/09/08 21:34:42;;;;;;;;;;;18.30;99.90;;;17.17;83.40;95505.84;10323162;28;2113;-73
2021/09/08 21:39:45;;;;;;;;;;;18.20;99.90;;;17.15;85.14;95506.19;10309869;28;2078;-73
2021/09/08 21:44:49;;;;;;;;;;;18.20;99.90;;;17.28;84.17;95502.47;10308395;28;2005;-75
2021/09/08 21:49:52;;;;;;;;;;;18.20;99.90;;;17.30;84.14;95499.44;10310459;28;2117;-74
2021/09/08 21:54:55;;;;;;;;;;;18.20;99.90;;;17.23;84.14;95496.41;10312962;28;2085;-73
2021/09/08 21:59:57;;;;;;;;;;;18.20;99.90;;;17.15;85.25;95503.47;10312668;28;2015;-75
2021/09/08 22:05:00;;;;;;;;;;;18.10;99.90;;;17.07;85.81;95501.56;10328235;28;1840;-75
2021/09/08 22:10:03;;;;;;;;;;;18.10;99.90;;;17.07;86.04;95490.69;10347223;28;1962;-72
2021/09/08 22:15:06;;;;;;;;;;;18.10;99.90;;;17.03;86.34;95487.03;10342971;28;1934;-75
2021/09/08 22:20:09;;;;;;;;;;;18.00;99.90;;;17.05;86.27;95492.94;10332561;28;2501;-73
2021/09/08 22:25:13;;;;;;;;;;;18.00;99.90;;;16.92;87.28;95497.44;10361577;28;2058;-73
2021/09/08 22:30:16;;;;;;;;;;;18.00;99.90;;;16.94;87.37;95503.31;10346179;28;1840;-74
2021/09/08 22:35:18;;;;;;;;;;;17.90;99.90;;;16.95;87.59;95498.69;10316501;28;2170;-73
2021/09/08 22:40:21;;;;;;;;;;;17.90;99.90;;;16.97;87.06;95496.44;10324004;28;1946;-74
2021/09/08 22:45:24;;;;;;;;;;;17.90;99.90;;;16.82;88.87;95496.94;10312699;28;2066;-74
2021/09/08 22:50:27;;;;;;;;;;;17.80;99.90;;;16.65;90.00;95500.41;10323256;28;1970;-74
2021/09/08 22:55:30;;;;;;;;;;;17.70;99.90;;;16.63;90.21;95497.22;10325027;28;2599;-74
2021/09/08 23:00:33;;;;;;;;;;;17.60;99.90;;;16.39;92.34;95500.38;10323037;28;1994;-74
2021/09/08 23:05:36;;;;;;;;;;;17.60;99.90;;;16.43;92.33;95507.59;10346528;28;2066;-72
2021/09/08 23:10:39;;;;;;;;;;;17.40;99.90;;;16.39;93.09;95503.91;10347226;28;1853;-71
2021/09/08 23:15:42;;;;;;;;;;;17.40;99.90;;;16.41;92.82;95501.69;10358110;28;2027;-74